sensor_id;sensor_type;location;lat;lon;timestamp;P1;durP1;ratioP1;P2;durP2;ratioP2
29384;SDS011;16367;48.736;9.218;2024-03-02T00:02:01;22.05;;;9.98;;
29384;SDS011;16367;48.736;9.218;2024-03-02T00:04:05;19.60;;;8.27;;
29384;SDS011;16367;48.736;9.218;2024-03-02T00:06:10;20.02;;;7.70;;
29384;SDS011;16367;48.736;9.218;2024-03-02T00:08:13;21.63;;;8.13;;
29384;SDS011;16367;48.736;9.218;2024-03-02T00:10:27;26.33;;;10.50;;
29384;SDS011;16367;48.736;9.218;2024-03-02T00:12:38;20.30;;;8.68;;
29384;SDS011;16367;48.736;9.218;2024-03-02T00:14:41;21.63;;;9.40;;
29384;SDS011;16367;48.736;9.218;2024-03-02T00:16:44;19.58;;;9.75;;
29384;SDS011;16367;48.736;9.218;2024-03-02T00:18:47;17.77;;;7.68;;
29384;SDS011;16367;48.736;9.218;2024-03-02T00:20:52;14.60;;;6.38;;
29384;SDS011;16367;48.736;9.218;2024-03-02T00:22:57;19.20;;;9.20;;
29384;SDS011;16367;48.736;9.218;2024-03-02T00:25:05;14.55;;;6.85;;
29384;SDS011;16367;48.736;9.218;2024-03-02T00:27:13;16.80;;;7.32;;
29384;SDS011;16367;48.736;9.218;2024-03-02T00:29:17;22.77;;;9.55;;
29384;SDS011;16367;48.736;9.218;2024-03-02T00:31:20;18.80;;;9.40;;
29384;SDS011;16367;48.736;9.218;2024-03-02T00:33:23;22.17;;;9.73;;
29384;SDS011;16367;48.736;9.218;2024-03-02T00:35:27;16.88;;;7.90;;
29384;SDS011;16367;48.736;9.218;2024-03-02T00:37:31;16.88;;;8.05;;
29384;SDS011;16367;48.736;9.218;2024-03-02T00:39:34;17.23;;;7.63;;
29384;SDS011;16367;48.736;9.218;2024-03-02T00:41:37;18.55;;;8.05;;
29384;SDS011;16367;48.736;9.218;2024-03-02T00:43:45;17.80;;;7.72;;
29384;SDS011;16367;48.736;9.218;2024-03-02T00:45:51;16.98;;;6.95;;
29384;SDS011;16367;48.736;9.218;2024-03-02T00:47:54;17.65;;;6.75;;
29384;SDS011;16367;48.736;9.218;2024-03-02T00:49:57;14.85;;;7.38;;
29384;SDS011;16367;48.736;9.218;2024-03-02T00:51:59;20.77;;;8.80;;
29384;SDS011;16367;48.736;9.218;2024-03-02T00:54:03;18.80;;;8.82;;
29384;SDS011;16367;48.736;9.218;2024-03-02T00:56:09;17.63;;;7.93;;
29384;SDS011;16367;48.736;9.218;2024-03-02T00:58:12;15.48;;;7.07;;
29384;SDS011;16367;48.736;9.218;2024-03-02T01:00:16;14.73;;;6.53;;
29384;SDS011;16367;48.736;9.218;2024-03-02T01:02:19;18.60;;;8.82;;
29384;SDS011;16367;48.736;9.218;2024-03-02T01:04:22;19.02;;;7.45;;
29384;SDS011;16367;48.736;9.218;2024-03-02T01:06:25;15.68;;;7.15;;
29384;SDS011;16367;48.736;9.218;2024-03-02T01:08:27;14.15;;;6.47;;
29384;SDS011;16367;48.736;9.218;2024-03-02T01:10:30;15.52;;;7.45;;
29384;SDS011;16367;48.736;9.218;2024-03-02T01:12:32;14.55;;;6.38;;
29384;SDS011;16367;48.736;9.218;2024-03-02T01:14:35;16.42;;;7.13;;
29384;SDS011;16367;48.736;9.218;2024-03-02T01:16:39;14.85;;;5.88;;
29384;SDS011;16367;48.736;9.218;2024-03-02T01:18:42;14.07;;;5.68;;
29384;SDS011;16367;48.736;9.218;2024-03-02T01:20:45;13.82;;;5.90;;
29384;SDS011;16367;48.736;9.218;2024-03-02T01:22:47;14.00;;;5.85;;
29384;SDS011;16367;48.736;9.218;2024-03-02T01:24:50;16.27;;;6.45;;
29384;SDS011;16367;48.736;9.218;2024-03-02T01:26:53;17.15;;;6.57;;
29384;SDS011;16367;48.736;9.218;2024-03-02T01:28:56;11.25;;;4.90;;
29384;SDS011;16367;48.736;9.218;2024-03-02T01:30:58;14.93;;;5.90;;
29384;SDS011;16367;48.736;9.218;2024-03-02T01:33:02;17.05;;;7.65;;
29384;SDS011;16367;48.736;9.218;2024-03-02T01:35:07;14.80;;;6.57;;
29384;SDS011;16367;48.736;9.218;2024-03-02T01:37:10;18.50;;;7.65;;
29384;SDS011;16367;48.736;9.218;2024-03-02T01:39:13;12.43;;;5.63;;
29384;SDS011;16367;48.736;9.218;2024-03-02T01:41:15;8.52;;;4.03;;
29384;SDS011;16367;48.736;9.218;2024-03-02T01:43:18;12.32;;;5.45;;
29384;SDS011;16367;48.736;9.218;2024-03-02T01:45:20;13.48;;;6.35;;
29384;SDS011;16367;48.736;9.218;2024-03-02T01:47:23;13.70;;;5.97;;
29384;SDS011;16367;48.736;9.218;2024-03-02T01:49:27;14.40;;;6.18;;
29384;SDS011;16367;48.736;9.218;2024-03-02T01:51:30;14.60;;;6.07;;
29384;SDS011;16367;48.736;9.218;2024-03-02T01:53:33;15.68;;;6.32;;
29384;SDS011;16367;48.736;9.218;2024-03-02T01:55:36;15.85;;;6.47;;
29384;SDS011;16367;48.736;9.218;2024-03-02T01:57:39;14.23;;;7.15;;
29384;SDS011;16367;48.736;9.218;2024-03-02T01:59:42;14.45;;;6.88;;
29384;SDS011;16367;48.736;9.218;2024-03-02T02:01:45;14.55;;;6.75;;
29384;SDS011;16367;48.736;9.218;2024-03-02T02:03:48;19.30;;;7.80;;
29384;SDS011;16367;48.736;9.218;2024-03-02T02:05:52;17.25;;;7.32;;
29384;SDS011;16367;48.736;9.218;2024-03-02T02:07:55;15.45;;;6.95;;
29384;SDS011;16367;48.736;9.218;2024-03-02T02:09:59;15.57;;;7.18;;
29384;SDS011;16367;48.736;9.218;2024-03-02T02:12:02;17.35;;;6.90;;
29384;SDS011;16367;48.736;9.218;2024-03-02T02:14:07;20.98;;;8.10;;
29384;SDS011;16367;48.736;9.218;2024-03-02T02:16:10;18.17;;;7.00;;
29384;SDS011;16367;48.736;9.218;2024-03-02T02:18:13;12.65;;;6.07;;
29384;SDS011;16367;48.736;9.218;2024-03-02T02:20:16;19.08;;;6.53;;
29384;SDS011;16367;48.736;9.218;2024-03-02T02:22:19;19.02;;;7.38;;
29384;SDS011;16367;48.736;9.218;2024-03-02T02:24:22;16.58;;;6.97;;
29384;SDS011;16367;48.736;9.218;2024-03-02T02:26:25;15.32;;;7.05;;
29384;SDS011;16367;48.736;9.218;2024-03-02T02:28:28;14.90;;;6.57;;
29384;SDS011;16367;48.736;9.218;2024-03-02T02:30:30;15.90;;;6.90;;
29384;SDS011;16367;48.736;9.218;2024-03-02T02:32:35;16.83;;;7.03;;
29384;SDS011;16367;48.736;9.218;2024-03-02T02:34:38;14.07;;;6.70;;
29384;SDS011;16367;48.736;9.218;2024-03-02T02:36:40;16.58;;;7.05;;
29384;SDS011;16367;48.736;9.218;2024-03-02T02:38:46;16.25;;;6.65;;
29384;SDS011;16367;48.736;9.218;2024-03-02T02:40:49;14.20;;;6.78;;
29384;SDS011;16367;48.736;9.218;2024-03-02T02:42:52;14.60;;;6.63;;
29384;SDS011;16367;48.736;9.218;2024-03-02T02:44:55;13.98;;;6.57;;
29384;SDS011;16367;48.736;9.218;2024-03-02T02:46:58;17.25;;;6.88;;
29384;SDS011;16367;48.736;9.218;2024-03-02T02:49:01;16.33;;;7.32;;
29384;SDS011;16367;48.736;9.218;2024-03-02T02:51:03;15.02;;;6.65;;
29384;SDS011;16367;48.736;9.218;2024-03-02T02:53:06;17.45;;;6.70;;
29384;SDS011;16367;48.736;9.218;2024-03-02T02:55:12;15.55;;;5.70;;
29384;SDS011;16367;48.736;9.218;2024-03-02T02:57:17;17.50;;;7.28;;
29384;SDS011;16367;48.736;9.218;2024-03-02T02:59:18;17.00;;;6.82;;
29384;SDS011;16367;48.736;9.218;2024-03-02T03:01:21;16.17;;;6.90;;
29384;SDS011;16367;48.736;9.218;2024-03-02T03:03:24;15.90;;;7.13;;
29384;SDS011;16367;48.736;9.218;2024-03-02T03:05:27;22.70;;;8.60;;
29384;SDS011;16367;48.736;9.218;2024-03-02T03:07:30;18.27;;;7.57;;
29384;SDS011;16367;48.736;9.218;2024-03-02T03:09:32;18.25;;;8.32;;
29384;SDS011;16367;48.736;9.218;2024-03-02T03:11:36;19.33;;;7.28;;
29384;SDS011;16367;48.736;9.218;2024-03-02T03:13:39;17.80;;;8.05;;
29384;SDS011;16367;48.736;9.218;2024-03-02T03:15:42;15.75;;;6.95;;
29384;SDS011;16367;48.736;9.218;2024-03-02T03:17:44;14.95;;;7.15;;
29384;SDS011;16367;48.736;9.218;2024-03-02T03:19:49;18.95;;;7.70;;
29384;SDS011;16367;48.736;9.218;2024-03-02T03:21:51;17.88;;;7.50;;
29384;SDS011;16367;48.736;9.218;2024-03-02T03:23:54;16.95;;;7.10;;
29384;SDS011;16367;48.736;9.218;2024-03-02T03:25:57;16.42;;;6.60;;
29384;SDS011;16367;48.736;9.218;2024-03-02T03:28:01;16.83;;;6.80;;
29384;SDS011;16367;48.736;9.218;2024-03-02T03:30:05;14.80;;;7.50;;
29384;SDS011;16367;48.736;9.218;2024-03-02T03:32:08;14.88;;;6.68;;
29384;SDS011;16367;48.736;9.218;2024-03-02T03:34:11;19.55;;;7.05;;
29384;SDS011;16367;48.736;9.218;2024-03-02T03:36:17;16.42;;;7.40;;
29384;SDS011;16367;48.736;9.218;2024-03-02T03:38:20;16.40;;;6.22;;
29384;SDS011;16367;48.736;9.218;2024-03-02T03:40:21;17.35;;;6.93;;
29384;SDS011;16367;48.736;9.218;2024-03-02T03:42:24;18.90;;;8.10;;
29384;SDS011;16367;48.736;9.218;2024-03-02T03:44:28;15.65;;;6.35;;
29384;SDS011;16367;48.736;9.218;2024-03-02T03:46:31;16.92;;;7.70;;
29384;SDS011;16367;48.736;9.218;2024-03-02T03:48:34;17.67;;;7.28;;
29384;SDS011;16367;48.736;9.218;2024-03-02T03:50:37;16.90;;;6.97;;
29384;SDS011;16367;48.736;9.218;2024-03-02T03:52:40;18.10;;;7.95;;
29384;SDS011;16367;48.736;9.218;2024-03-02T03:54:42;16.48;;;6.93;;
29384;SDS011;16367;48.736;9.218;2024-03-02T03:56:46;18.23;;;8.35;;
29384;SDS011;16367;48.736;9.218;2024-03-02T03:58:49;19.23;;;7.65;;
29384;SDS011;16367;48.736;9.218;2024-03-02T04:00:53;18.52;;;7.25;;
29384;SDS011;16367;48.736;9.218;2024-03-02T04:02:56;17.83;;;7.38;;
29384;SDS011;16367;48.736;9.218;2024-03-02T04:04:58;21.75;;;7.97;;
29384;SDS011;16367;48.736;9.218;2024-03-02T04:07:00;16.23;;;7.43;;
29384;SDS011;16367;48.736;9.218;2024-03-02T04:09:03;20.33;;;8.23;;
29384;SDS011;16367;48.736;9.218;2024-03-02T04:11:06;18.10;;;7.60;;
29384;SDS011;16367;48.736;9.218;2024-03-02T04:13:10;18.45;;;8.07;;
29384;SDS011;16367;48.736;9.218;2024-03-02T04:15:12;18.67;;;7.78;;
29384;SDS011;16367;48.736;9.218;2024-03-02T04:17:17;20.08;;;8.25;;
29384;SDS011;16367;48.736;9.218;2024-03-02T04:19:18;19.73;;;8.15;;
29384;SDS011;16367;48.736;9.218;2024-03-02T04:21:21;20.88;;;8.63;;
29384;SDS011;16367;48.736;9.218;2024-03-02T04:23:23;19.70;;;8.25;;
29384;SDS011;16367;48.736;9.218;2024-03-02T04:25:26;22.42;;;8.27;;
29384;SDS011;16367;48.736;9.218;2024-03-02T04:27:28;21.10;;;8.43;;
29384;SDS011;16367;48.736;9.218;2024-03-02T04:29:30;20.45;;;8.57;;
29384;SDS011;16367;48.736;9.218;2024-03-02T04:31:33;20.02;;;7.70;;
29384;SDS011;16367;48.736;9.218;2024-03-02T04:33:37;23.48;;;8.15;;
29384;SDS011;16367;48.736;9.218;2024-03-02T04:35:39;16.95;;;7.47;;
29384;SDS011;16367;48.736;9.218;2024-03-02T04:37:42;23.05;;;9.25;;
29384;SDS011;16367;48.736;9.218;2024-03-02T04:39:45;19.60;;;7.95;;
29384;SDS011;16367;48.736;9.218;2024-03-02T04:41:47;25.00;;;9.48;;
29384;SDS011;16367;48.736;9.218;2024-03-02T04:43:50;18.33;;;8.98;;
29384;SDS011;16367;48.736;9.218;2024-03-02T04:45:53;18.90;;;8.30;;
29384;SDS011;16367;48.736;9.218;2024-03-02T04:47:55;23.60;;;9.20;;
29384;SDS011;16367;48.736;9.218;2024-03-02T04:49:59;23.88;;;8.40;;
29384;SDS011;16367;48.736;9.218;2024-03-02T04:52:02;19.48;;;7.55;;
29384;SDS011;16367;48.736;9.218;2024-03-02T04:54:05;23.13;;;8.80;;
29384;SDS011;16367;48.736;9.218;2024-03-02T04:56:08;25.15;;;8.55;;
29384;SDS011;16367;48.736;9.218;2024-03-02T04:58:40;21.00;;;7.93;;
29384;SDS011;16367;48.736;9.218;2024-03-02T05:00:42;21.30;;;8.43;;
29384;SDS011;16367;48.736;9.218;2024-03-02T05:02:48;21.88;;;8.02;;
29384;SDS011;16367;48.736;9.218;2024-03-02T05:04:50;20.25;;;7.75;;
29384;SDS011;16367;48.736;9.218;2024-03-02T05:06:54;21.45;;;7.97;;
29384;SDS011;16367;48.736;9.218;2024-03-02T05:08:59;19.88;;;8.25;;
29384;SDS011;16367;48.736;9.218;2024-03-02T05:11:02;19.20;;;10.18;;
29384;SDS011;16367;48.736;9.218;2024-03-02T05:13:19;23.27;;;8.90;;
29384;SDS011;16367;48.736;9.218;2024-03-02T05:15:22;21.25;;;8.80;;
29384;SDS011;16367;48.736;9.218;2024-03-02T05:17:25;23.95;;;10.13;;
29384;SDS011;16367;48.736;9.218;2024-03-02T05:19:28;20.08;;;9.45;;
29384;SDS011;16367;48.736;9.218;2024-03-02T05:21:30;22.75;;;10.52;;
29384;SDS011;16367;48.736;9.218;2024-03-02T05:23:33;23.70;;;11.65;;
29384;SDS011;16367;48.736;9.218;2024-03-02T05:25:36;23.15;;;10.85;;
29384;SDS011;16367;48.736;9.218;2024-03-02T05:27:39;22.13;;;10.68;;
29384;SDS011;16367;48.736;9.218;2024-03-02T05:29:41;21.38;;;9.95;;
29384;SDS011;16367;48.736;9.218;2024-03-02T05:31:44;21.45;;;10.15;;
29384;SDS011;16367;48.736;9.218;2024-03-02T05:33:47;22.08;;;10.23;;
29384;SDS011;16367;48.736;9.218;2024-03-02T05:35:53;25.10;;;10.13;;
29384;SDS011;16367;48.736;9.218;2024-03-02T05:37:55;24.75;;;10.65;;
29384;SDS011;16367;48.736;9.218;2024-03-02T05:40:00;23.85;;;11.23;;
29384;SDS011;16367;48.736;9.218;2024-03-02T05:42:02;23.48;;;10.45;;
29384;SDS011;16367;48.736;9.218;2024-03-02T05:44:06;27.73;;;10.35;;
29384;SDS011;16367;48.736;9.218;2024-03-02T05:46:08;22.58;;;9.48;;
29384;SDS011;16367;48.736;9.218;2024-03-02T05:48:11;25.45;;;10.35;;
29384;SDS011;16367;48.736;9.218;2024-03-02T05:50:14;25.23;;;10.68;;
29384;SDS011;16367;48.736;9.218;2024-03-02T05:52:17;25.83;;;10.77;;
29384;SDS011;16367;48.736;9.218;2024-03-02T05:54:19;24.58;;;11.05;;
29384;SDS011;16367;48.736;9.218;2024-03-02T05:56:23;24.98;;;10.75;;
29384;SDS011;16367;48.736;9.218;2024-03-02T05:58:25;23.42;;;9.00;;
29384;SDS011;16367;48.736;9.218;2024-03-02T06:00:39;25.92;;;10.63;;
29384;SDS011;16367;48.736;9.218;2024-03-02T06:02:42;24.58;;;11.20;;
29384;SDS011;16367;48.736;9.218;2024-03-02T06:04:44;26.50;;;10.35;;
29384;SDS011;16367;48.736;9.218;2024-03-02T06:06:47;24.92;;;10.57;;
29384;SDS011;16367;48.736;9.218;2024-03-02T06:08:51;23.88;;;10.25;;
29384;SDS011;16367;48.736;9.218;2024-03-02T06:10:54;24.63;;;10.45;;
29384;SDS011;16367;48.736;9.218;2024-03-02T06:12:59;24.13;;;10.35;;
29384;SDS011;16367;48.736;9.218;2024-03-02T06:15:02;27.52;;;10.57;;
29384;SDS011;16367;48.736;9.218;2024-03-02T06:17:05;25.88;;;9.73;;
29384;SDS011;16367;48.736;9.218;2024-03-02T06:19:08;27.27;;;10.85;;
29384;SDS011;16367;48.736;9.218;2024-03-02T06:21:11;18.80;;;9.35;;
29384;SDS011;16367;48.736;9.218;2024-03-02T06:23:12;24.17;;;9.25;;
29384;SDS011;16367;48.736;9.218;2024-03-02T06:25:15;19.95;;;8.02;;
29384;SDS011;16367;48.736;9.218;2024-03-02T06:27:18;16.05;;;6.65;;
29384;SDS011;16367;48.736;9.218;2024-03-02T06:29:22;17.58;;;7.53;;
29384;SDS011;16367;48.736;9.218;2024-03-02T06:31:25;17.40;;;6.75;;
29384;SDS011;16367;48.736;9.218;2024-03-02T06:33:26;16.05;;;6.43;;
29384;SDS011;16367;48.736;9.218;2024-03-02T06:35:29;16.20;;;7.28;;
29384;SDS011;16367;48.736;9.218;2024-03-02T06:37:31;13.00;;;6.07;;
29384;SDS011;16367;48.736;9.218;2024-03-02T06:39:34;17.65;;;6.88;;
29384;SDS011;16367;48.736;9.218;2024-03-02T06:41:37;16.83;;;6.10;;
29384;SDS011;16367;48.736;9.218;2024-03-02T06:43:40;11.20;;;4.95;;
29384;SDS011;16367;48.736;9.218;2024-03-02T06:45:44;16.88;;;6.38;;
29384;SDS011;16367;48.736;9.218;2024-03-02T06:47:47;14.63;;;5.65;;
29384;SDS011;16367;48.736;9.218;2024-03-02T06:49:50;16.83;;;7.78;;
29384;SDS011;16367;48.736;9.218;2024-03-02T06:51:52;18.02;;;7.90;;
29384;SDS011;16367;48.736;9.218;2024-03-02T06:53:55;15.82;;;7.70;;
29384;SDS011;16367;48.736;9.218;2024-03-02T06:55:57;17.58;;;7.47;;
29384;SDS011;16367;48.736;9.218;2024-03-02T06:58:00;18.55;;;7.55;;
29384;SDS011;16367;48.736;9.218;2024-03-02T07:00:04;13.90;;;6.18;;
29384;SDS011;16367;48.736;9.218;2024-03-02T07:02:11;16.38;;;8.15;;
29384;SDS011;16367;48.736;9.218;2024-03-02T07:04:13;16.05;;;6.70;;
29384;SDS011;16367;48.736;9.218;2024-03-02T07:06:16;15.93;;;6.05;;
29384;SDS011;16367;48.736;9.218;2024-03-02T07:08:19;14.75;;;6.43;;
29384;SDS011;16367;48.736;9.218;2024-03-02T07:10:22;12.60;;;5.57;;
29384;SDS011;16367;48.736;9.218;2024-03-02T07:12:25;12.88;;;5.40;;
29384;SDS011;16367;48.736;9.218;2024-03-02T07:14:28;14.07;;;5.18;;
29384;SDS011;16367;48.736;9.218;2024-03-02T07:16:45;10.95;;;4.63;;
29384;SDS011;16367;48.736;9.218;2024-03-02T07:18:49;12.25;;;5.75;;
29384;SDS011;16367;48.736;9.218;2024-03-02T07:20:53;10.35;;;4.65;;
29384;SDS011;16367;48.736;9.218;2024-03-02T07:22:57;10.82;;;5.30;;
29384;SDS011;16367;48.736;9.218;2024-03-02T07:24:59;7.10;;;3.75;;
29384;SDS011;16367;48.736;9.218;2024-03-02T07:27:01;12.88;;;4.65;;
29384;SDS011;16367;48.736;9.218;2024-03-02T07:29:05;13.30;;;4.90;;
29384;SDS011;16367;48.736;9.218;2024-03-02T07:31:08;11.32;;;5.95;;
29384;SDS011;16367;48.736;9.218;2024-03-02T07:33:11;11.18;;;5.20;;
29384;SDS011;16367;48.736;9.218;2024-03-02T07:35:15;10.30;;;4.78;;
29384;SDS011;16367;48.736;9.218;2024-03-02T07:37:17;10.10;;;4.30;;
29384;SDS011;16367;48.736;9.218;2024-03-02T07:39:20;10.25;;;4.63;;
29384;SDS011;16367;48.736;9.218;2024-03-02T07:41:23;10.80;;;4.93;;
29384;SDS011;16367;48.736;9.218;2024-03-02T07:43:26;10.88;;;4.97;;
29384;SDS011;16367;48.736;9.218;2024-03-02T07:45:29;12.90;;;5.50;;
29384;SDS011;16367;48.736;9.218;2024-03-02T07:47:32;10.85;;;4.90;;
29384;SDS011;16367;48.736;9.218;2024-03-02T07:49:35;10.38;;;4.63;;
29384;SDS011;16367;48.736;9.218;2024-03-02T07:51:38;12.00;;;5.05;;
29384;SDS011;16367;48.736;9.218;2024-03-02T07:53:41;10.40;;;4.68;;
29384;SDS011;16367;48.736;9.218;2024-03-02T07:55:46;11.25;;;4.95;;
29384;SDS011;16367;48.736;9.218;2024-03-02T07:57:49;10.73;;;5.40;;
29384;SDS011;16367;48.736;9.218;2024-03-02T07:59:52;10.85;;;5.00;;
29384;SDS011;16367;48.736;9.218;2024-03-02T08:01:55;11.55;;;5.00;;
29384;SDS011;16367;48.736;9.218;2024-03-02T08:03:57;11.88;;;4.53;;
29384;SDS011;16367;48.736;9.218;2024-03-02T08:06:00;9.48;;;3.88;;
29384;SDS011;16367;48.736;9.218;2024-03-02T08:08:05;11.98;;;4.72;;
29384;SDS011;16367;48.736;9.218;2024-03-02T08:10:08;12.27;;;4.88;;
29384;SDS011;16367;48.736;9.218;2024-03-02T08:12:11;11.05;;;5.32;;
29384;SDS011;16367;48.736;9.218;2024-03-02T08:14:14;10.57;;;5.32;;
29384;SDS011;16367;48.736;9.218;2024-03-02T08:16:17;8.05;;;3.72;;
29384;SDS011;16367;48.736;9.218;2024-03-02T08:18:21;13.30;;;5.78;;
29384;SDS011;16367;48.736;9.218;2024-03-02T08:20:24;12.80;;;4.85;;
29384;SDS011;16367;48.736;9.218;2024-03-02T08:22:26;11.25;;;4.57;;
29384;SDS011;16367;48.736;9.218;2024-03-02T08:24:31;9.35;;;4.30;;
29384;SDS011;16367;48.736;9.218;2024-03-02T08:26:33;10.93;;;4.80;;
29384;SDS011;16367;48.736;9.218;2024-03-02T08:28:36;10.57;;;4.53;;
29384;SDS011;16367;48.736;9.218;2024-03-02T08:30:38;10.77;;;4.75;;
29384;SDS011;16367;48.736;9.218;2024-03-02T08:32:41;9.98;;;4.28;;
29384;SDS011;16367;48.736;9.218;2024-03-02T08:34:44;10.60;;;5.20;;
29384;SDS011;16367;48.736;9.218;2024-03-02T08:36:45;10.27;;;5.00;;
29384;SDS011;16367;48.736;9.218;2024-03-02T08:38:48;10.48;;;5.35;;
29384;SDS011;16367;48.736;9.218;2024-03-02T08:40:53;8.85;;;4.15;;
29384;SDS011;16367;48.736;9.218;2024-03-02T08:42:55;7.55;;;3.83;;
29384;SDS011;16367;48.736;9.218;2024-03-02T08:44:57;9.80;;;4.55;;
29384;SDS011;16367;48.736;9.218;2024-03-02T08:47:02;9.57;;;4.68;;
29384;SDS011;16367;48.736;9.218;2024-03-02T08:49:05;9.13;;;4.15;;
29384;SDS011;16367;48.736;9.218;2024-03-02T08:51:08;8.38;;;3.97;;
29384;SDS011;16367;48.736;9.218;2024-03-02T08:53:11;7.30;;;3.60;;
29384;SDS011;16367;48.736;9.218;2024-03-02T08:55:14;8.60;;;3.90;;
29384;SDS011;16367;48.736;9.218;2024-03-02T08:57:18;8.15;;;4.18;;
29384;SDS011;16367;48.736;9.218;2024-03-02T08:59:21;8.45;;;3.70;;
29384;SDS011;16367;48.736;9.218;2024-03-02T09:01:26;7.72;;;3.53;;
29384;SDS011;16367;48.736;9.218;2024-03-02T09:03:29;6.50;;;3.33;;
29384;SDS011;16367;48.736;9.218;2024-03-02T09:05:34;7.35;;;3.42;;
29384;SDS011;16367;48.736;9.218;2024-03-02T09:07:37;7.18;;;3.67;;
29384;SDS011;16367;48.736;9.218;2024-03-02T09:09:39;8.32;;;3.97;;
29384;SDS011;16367;48.736;9.218;2024-03-02T09:11:42;7.95;;;3.70;;
29384;SDS011;16367;48.736;9.218;2024-03-02T09:13:47;8.07;;;3.78;;
29384;SDS011;16367;48.736;9.218;2024-03-02T09:15:49;8.48;;;4.10;;
29384;SDS011;16367;48.736;9.218;2024-03-02T09:17:53;7.20;;;3.35;;
29384;SDS011;16367;48.736;9.218;2024-03-02T09:19:54;8.73;;;4.43;;
29384;SDS011;16367;48.736;9.218;2024-03-02T09:21:57;7.80;;;4.20;;
29384;SDS011;16367;48.736;9.218;2024-03-02T09:24:00;6.78;;;3.75;;
29384;SDS011;16367;48.736;9.218;2024-03-02T09:26:03;8.70;;;4.30;;
29384;SDS011;16367;48.736;9.218;2024-03-02T09:28:06;7.30;;;3.88;;
29384;SDS011;16367;48.736;9.218;2024-03-02T09:30:11;6.90;;;3.90;;
29384;SDS011;16367;48.736;9.218;2024-03-02T09:32:15;7.68;;;3.70;;
29384;SDS011;16367;48.736;9.218;2024-03-02T09:34:18;6.93;;;3.70;;
29384;SDS011;16367;48.736;9.218;2024-03-02T09:36:21;6.93;;;3.63;;
29384;SDS011;16367;48.736;9.218;2024-03-02T09:38:25;9.13;;;4.07;;
29384;SDS011;16367;48.736;9.218;2024-03-02T09:40:27;7.13;;;3.75;;
29384;SDS011;16367;48.736;9.218;2024-03-02T09:42:30;7.93;;;4.00;;
29384;SDS011;16367;48.736;9.218;2024-03-02T09:44:33;7.88;;;3.90;;
29384;SDS011;16367;48.736;9.218;2024-03-02T09:46:38;7.22;;;3.70;;
29384;SDS011;16367;48.736;9.218;2024-03-02T09:48:40;7.93;;;3.53;;
29384;SDS011;16367;48.736;9.218;2024-03-02T09:50:43;7.57;;;4.20;;
29384;SDS011;16367;48.736;9.218;2024-03-02T09:52:48;7.80;;;3.88;;
29384;SDS011;16367;48.736;9.218;2024-03-02T09:54:51;8.02;;;4.10;;
29384;SDS011;16367;48.736;9.218;2024-03-02T09:56:53;6.93;;;3.60;;
29384;SDS011;16367;48.736;9.218;2024-03-02T09:58:57;7.55;;;3.92;;
29384;SDS011;16367;48.736;9.218;2024-03-02T10:00:59;6.32;;;2.92;;
29384;SDS011;16367;48.736;9.218;2024-03-02T10:03:04;8.10;;;3.83;;
29384;SDS011;16367;48.736;9.218;2024-03-02T10:05:07;7.75;;;3.45;;
29384;SDS011;16367;48.736;9.218;2024-03-02T10:07:13;7.00;;;3.40;;
29384;SDS011;16367;48.736;9.218;2024-03-02T10:09:23;6.40;;;3.28;;
29384;SDS011;16367;48.736;9.218;2024-03-02T10:11:31;7.75;;;3.45;;
29384;SDS011;16367;48.736;9.218;2024-03-02T10:13:38;6.10;;;3.13;;
29384;SDS011;16367;48.736;9.218;2024-03-02T10:15:41;6.65;;;3.35;;
29384;SDS011;16367;48.736;9.218;2024-03-02T10:17:44;6.55;;;3.50;;
29384;SDS011;16367;48.736;9.218;2024-03-02T10:19:48;6.47;;;3.20;;
29384;SDS011;16367;48.736;9.218;2024-03-02T10:21:51;6.80;;;3.70;;
29384;SDS011;16367;48.736;9.218;2024-03-02T10:23:56;7.95;;;3.95;;
29384;SDS011;16367;48.736;9.218;2024-03-02T10:26:10;7.13;;;3.42;;
29384;SDS011;16367;48.736;9.218;2024-03-02T10:28:19;7.75;;;3.65;;
29384;SDS011;16367;48.736;9.218;2024-03-02T10:30:22;8.68;;;3.60;;
29384;SDS011;16367;48.736;9.218;2024-03-02T10:32:23;7.43;;;3.53;;
29384;SDS011;16367;48.736;9.218;2024-03-02T10:34:27;7.70;;;3.80;;
29384;SDS011;16367;48.736;9.218;2024-03-02T10:36:31;8.18;;;3.30;;
29384;SDS011;16367;48.736;9.218;2024-03-02T10:38:34;7.68;;;3.42;;
29384;SDS011;16367;48.736;9.218;2024-03-02T10:40:37;7.55;;;3.50;;
29384;SDS011;16367;48.736;9.218;2024-03-02T10:42:40;6.82;;;3.40;;
29384;SDS011;16367;48.736;9.218;2024-03-02T10:44:44;7.30;;;3.65;;
29384;SDS011;16367;48.736;9.218;2024-03-02T10:46:47;7.18;;;3.67;;
29384;SDS011;16367;48.736;9.218;2024-03-02T10:48:52;8.02;;;3.42;;
29384;SDS011;16367;48.736;9.218;2024-03-02T10:50:55;9.07;;;3.17;;
29384;SDS011;16367;48.736;9.218;2024-03-02T10:53:04;6.65;;;3.30;;
29384;SDS011;16367;48.736;9.218;2024-03-02T10:55:07;6.53;;;2.97;;
29384;SDS011;16367;48.736;9.218;2024-03-02T10:57:11;6.07;;;2.70;;
29384;SDS011;16367;48.736;9.218;2024-03-02T10:59:16;6.15;;;3.17;;
29384;SDS011;16367;48.736;9.218;2024-03-02T11:01:25;6.68;;;3.22;;
29384;SDS011;16367;48.736;9.218;2024-03-02T11:03:29;5.88;;;2.72;;
29384;SDS011;16367;48.736;9.218;2024-03-02T11:05:36;7.60;;;3.05;;
29384;SDS011;16367;48.736;9.218;2024-03-02T11:07:40;5.80;;;2.40;;
29384;SDS011;16367;48.736;9.218;2024-03-02T11:09:48;4.43;;;1.98;;
29384;SDS011;16367;48.736;9.218;2024-03-02T11:11:59;5.55;;;2.10;;
29384;SDS011;16367;48.736;9.218;2024-03-02T11:14:05;5.82;;;2.08;;
29384;SDS011;16367;48.736;9.218;2024-03-02T11:16:15;4.70;;;2.00;;
29384;SDS011;16367;48.736;9.218;2024-03-02T11:18:28;5.18;;;1.88;;
29384;SDS011;16367;48.736;9.218;2024-03-02T11:20:32;4.00;;;1.63;;
29384;SDS011;16367;48.736;9.218;2024-03-02T11:22:36;4.70;;;1.75;;
29384;SDS011;16367;48.736;9.218;2024-03-02T11:24:39;4.47;;;1.52;;
29384;SDS011;16367;48.736;9.218;2024-03-02T11:26:52;6.22;;;1.38;;
29384;SDS011;16367;48.736;9.218;2024-03-02T11:28:54;4.50;;;1.58;;
29384;SDS011;16367;48.736;9.218;2024-03-02T11:30:59;4.75;;;1.40;;
29384;SDS011;16367;48.736;9.218;2024-03-02T11:33:02;5.90;;;2.13;;
29384;SDS011;16367;48.736;9.218;2024-03-02T11:35:09;4.32;;;1.58;;
29384;SDS011;16367;48.736;9.218;2024-03-02T11:37:13;6.50;;;1.60;;
29384;SDS011;16367;48.736;9.218;2024-03-02T11:39:16;4.25;;;1.80;;
29384;SDS011;16367;48.736;9.218;2024-03-02T11:41:22;4.20;;;1.70;;
29384;SDS011;16367;48.736;9.218;2024-03-02T11:43:27;4.18;;;1.70;;
29384;SDS011;16367;48.736;9.218;2024-03-02T11:45:29;4.60;;;1.63;;
29384;SDS011;16367;48.736;9.218;2024-03-02T11:47:33;4.18;;;1.58;;
29384;SDS011;16367;48.736;9.218;2024-03-02T11:49:39;5.60;;;1.70;;
29384;SDS011;16367;48.736;9.218;2024-03-02T11:51:50;5.35;;;2.08;;
29384;SDS011;16367;48.736;9.218;2024-03-02T11:54:03;3.92;;;1.52;;
29384;SDS011;16367;48.736;9.218;2024-03-02T11:56:09;4.90;;;1.75;;
29384;SDS011;16367;48.736;9.218;2024-03-02T11:58:14;5.18;;;1.50;;
29384;SDS011;16367;48.736;9.218;2024-03-02T12:00:18;4.53;;;1.80;;
29384;SDS011;16367;48.736;9.218;2024-03-02T12:02:22;4.32;;;1.50;;
29384;SDS011;16367;48.736;9.218;2024-03-02T12:04:25;3.90;;;1.30;;
29384;SDS011;16367;48.736;9.218;2024-03-02T12:06:27;3.35;;;1.23;;
29384;SDS011;16367;48.736;9.218;2024-03-02T12:08:31;3.25;;;1.15;;
29384;SDS011;16367;48.736;9.218;2024-03-02T12:10:34;2.42;;;0.85;;
29384;SDS011;16367;48.736;9.218;2024-03-02T12:12:37;3.03;;;1.02;;
29384;SDS011;16367;48.736;9.218;2024-03-02T12:14:49;3.58;;;1.20;;
29384;SDS011;16367;48.736;9.218;2024-03-02T12:16:53;3.50;;;1.08;;
29384;SDS011;16367;48.736;9.218;2024-03-02T12:18:57;4.45;;;1.35;;